Time;durP1;ratioP1;P1;durP2;ratioP2;P2;SDS_P1;SDS_P2;PMS_P1;PMS_P2;Temp;Humidity;BMP_temperature;BMP_pressure;BME280_temperature;BME280_humidity;BME280_pressure;Samples;Min_cycle;Max_cycle;Signal;HPM_P1;HPM_P2
2022/11/04 00:01:06;;;;;;;7.82;4.20;;;;;;;13.00;98.85;101388.06;2088919;28;20164;-74
2022/11/04 00:02:28;;;;;;;12.65;5.15;;;;;;;13.00;98.93;101393.38;2102868;28;20071;-74
2022/11/04 00:03:51;;;;;;;9.00;5.00;;;;;;;12.98;99.01;101392.47;2096317;28;20082;-74
2022/11/04 00:05:13;;;;;;;8.52;4.47;;;;;;;12.96;99.12;101395.09;2094716;28;20048;-74
2022/11/04 00:06:35;;;;;;;13.68;4.88;;;;;;;12.95;99.65;101392.41;2094367;28;20049;-74
2022/11/04 00:09:37;;;;;;;11.13;4.80;;;;;;;12.90;100.00;101391.47;2097113;28;20052;-74
2022/11/04 00:12:40;;;;;;;8.30;3.90;;;;;;;12.90;99.94;101388.81;2097177;28;20053;-74
2022/11/04 00:14:03;;;;;;;11.70;5.07;;;;;;;12.89;99.95;101400.28;2094439;28;20041;-74
2022/11/04 00:17:21;;;;;;;6.93;3.60;;;;;;;12.85;100.00;101388.75;2073506;28;20136;-74
2022/11/04 00:18:43;;;;;;;8.20;3.65;;;;;;;12.87;100.00;101391.41;2096475;28;20056;-74
2022/11/04 00:28:43;;;;;;;7.45;4.15;;;;;;;12.88;98.87;101380.81;2081863;28;20075;-73
2022/11/04 00:30:09;;;;;;;7.45;4.00;;;;;;;12.87;99.00;101381.69;2093616;28;20056;-73
2022/11/04 00:33:24;;;;;;;10.10;3.80;;;;;;;12.86;99.45;101376.41;2089755;28;20052;-73
2022/11/04 00:34:47;;;;;;;8.88;3.90;;;;;;;12.86;99.53;101379.03;2097038;28;20037;-73
2022/11/04 00:36:10;;;;;;;8.13;3.50;;;;;;;12.90;99.13;101380.88;2087591;28;20102;-74
2022/11/04 00:37:31;;;;;;;6.10;3.35;;;;;;;12.91;98.68;101380.00;2087498;28;20100;-74
2022/11/04 00:38:53;;;;;;;7.50;3.75;;;;;;;12.89;98.37;101374.66;2092838;28;20053;-74
2022/11/04 00:40:17;;;;;;;10.90;3.85;;;;;;;12.89;98.14;101371.13;2087351;28;20556;-73
2022/11/04 00:41:38;;;;;;;6.40;3.28;;;;;;;12.92;97.76;101374.72;2092974;28;20049;-73
2022/11/04 00:43:00;;;;;;;6.47;3.63;;;;;;;12.95;97.09;101373.88;2095582;28;20068;-73
2022/11/04 00:44:23;;;;;;;9.60;4.03;;;;;;;12.96;96.41;101368.59;2095319;28;20444;-73
2022/11/04 00:45:45;;;;;;;5.95;3.05;;;;;;;12.96;95.90;101375.66;2098049;28;20508;-73
2022/11/04 00:47:08;;;;;;;6.90;3.78;;;;;;;12.91;96.24;101372.06;2087371;28;20045;-73
2022/11/04 00:48:31;;;;;;;9.05;3.90;;;;;;;12.87;96.90;101367.56;2092805;28;20060;-73
2022/11/04 00:49:52;;;;;;;9.35;4.00;;;;;;;12.89;97.50;101368.47;2098400;28;20043;-74
2022/11/04 00:51:15;;;;;;;7.00;3.60;;;;;;;12.90;97.79;101371.16;2098572;28;20044;-73
2022/11/04 00:52:36;;;;;;;8.25;3.83;;;;;;;12.91;97.85;101366.75;2088870;28;20040;-73
2022/11/04 00:53:59;;;;;;;10.25;4.60;;;;;;;12.90;98.04;101370.25;2100745;28;20484;-74
2022/11/04 00:55:21;;;;;;;8.88;4.05;;;;;;;12.89;98.09;101369.38;2098594;28;20053;-74
2022/11/04 00:56:42;;;;;;;8.13;4.13;;;;;;;12.90;97.56;101363.22;2103761;28;20467;-73
2022/11/04 00:58:05;;;;;;;8.75;4.45;;;;;;;12.90;97.60;101367.63;2098071;28;20044;-73
2022/11/04 00:59:29;;;;;;;6.95;4.15;;;;;;;12.89;97.84;101365.81;2098062;28;20359;-73
2022/11/04 01:00:50;;;;;;;9.98;4.32;;;;;;;12.88;98.20;101371.97;2092611;28;20033;-73
2022/11/04 01:02:12;;;;;;;8.50;3.80;;;;;;;12.84;98.48;101371.06;2101340;28;20129;-73
2022/11/04 01:03:35;;;;;;;7.05;4.30;;;;;;;12.78;98.97;101366.56;2103831;28;20047;-73
2022/11/04 01:04:57;;;;;;;9.27;4.70;;;;;;;12.74;99.30;101363.81;2095668;28;20055;-74
2022/11/04 01:06:22;;;;;;;10.02;4.50;;;;;;;12.73;99.59;101362.91;2101181;28;20487;-74
2022/11/04 01:07:44;;;;;;;8.50;4.00;;;;;;;12.69;99.72;101365.50;2104114;28;20044;-74
2022/11/04 01:09:08;;;;;;;11.02;4.05;;;;;;;12.67;100.00;101359.28;2106586;28;20436;-75
2022/11/04 01:10:31;;;;;;;8.23;4.15;;;;;;;12.69;99.86;101362.84;2106179;28;20109;-74
2022/11/04 01:11:52;;;;;;;7.10;3.53;;;;;;;12.73;99.35;101362.91;2098412;28;20041;-73
2022/11/04 01:13:15;;;;;;;8.10;4.05;;;;;;;12.76;99.11;101368.28;2097614;28;20460;-74
2022/11/04 01:14:37;;;;;;;9.48;4.30;;;;;;;12.76;98.77;101364.75;2104086;28;20048;-74
2022/11/04 01:16:00;;;;;;;9.20;4.20;;;;;;;12.75;98.87;101360.31;2105692;28;20568;-74
2022/11/04 01:17:22;;;;;;;7.80;4.00;;;;;;;12.71;98.99;101364.69;2097911;28;20048;-74
2022/11/04 01:18:45;;;;;;;8.15;4.07;;;;;;;12.70;99.23;101362.00;2087252;28;20151;-74
2022/11/04 01:20:08;;;;;;;8.52;4.63;;;;;;;12.71;99.14;101362.03;2092784;28;20430;-74
2022/11/04 01:21:31;;;;;;;6.80;3.35;;;;;;;12.71;98.73;101364.69;2094951;28;20076;-74
2022/11/04 01:22:53;;;;;;;7.45;4.10;;;;;;;12.69;98.49;101357.56;2095594;28;20431;-74
2022/11/04 01:24:14;;;;;;;6.80;3.88;;;;;;;12.70;98.55;101362.00;2097593;28;20135;-74
2022/11/04 01:25:40;;;;;;;9.20;3.88;;;;;;;12.69;98.73;101361.09;2094675;28;20048;-73
2022/11/04 01:27:02;;;;;;;7.55;3.83;;;;;;;12.68;98.77;101356.66;2087783;28;20466;-74
2022/11/04 01:28:24;;;;;;;8.15;3.63;;;;;;;12.68;98.53;101355.75;2101044;28;20036;-74
2022/11/04 01:29:47;;;;;;;9.23;3.90;;;;;;;12.66;98.34;101347.81;2106148;28;20067;-74
2022/11/04 01:31:10;;;;;;;7.38;3.90;;;;;;;12.64;98.16;101346.91;2089687;28;20540;-73
2022/11/04 01:32:33;;;;;;;8.70;3.70;;;;;;;12.66;97.88;101349.56;2094458;28;20040;-74
2022/11/04 01:33:54;;;;;;;7.40;3.40;;;;;;;12.67;97.30;101351.34;2095185;28;20085;-73
2022/11/04 01:35:17;;;;;;;6.63;3.30;;;;;;;12.66;96.72;101347.81;2095592;28;20183;-73
2022/11/04 01:36:38;;;;;;;9.05;3.35;;;;;;;12.63;96.38;101346.84;2095086;28;20048;-74
2022/11/04 01:38:00;;;;;;;11.02;4.10;;;;;;;12.58;96.40;101349.44;2103422;28;20044;-73
2022/11/04 01:39:23;;;;;;;7.28;3.65;;;;;;;12.55;96.03;101345.84;2089511;28;20041;-73
2022/11/04 01:40:44;;;;;;;7.78;2.88;;;;;;;12.49;96.17;101346.63;2100734;28;20621;-74
2022/11/04 01:42:07;;;;;;;7.22;3.60;;;;;;;12.44;95.83;101343.00;2097461;28;20067;-74
2022/11/04 01:43:45;;;;;;;7.00;3.90;;;;;;;12.42;95.96;101344.75;2087355;28;20048;-73
2022/11/04 01:45:13;;;;;;;6.20;3.20;;;;;;;12.43;96.00;101335.94;2087488;28;20700;-73
2022/11/04 01:46:41;;;;;;;9.27;3.83;;;;;;;12.48;95.92;101349.25;2094122;28;20137;-73
2022/11/04 01:48:07;;;;;;;10.52;3.80;;;;;;;12.52;95.62;101343.16;2079447;28;20045;-72
2022/11/04 01:49:32;;;;;;;7.80;3.67;;;;;;;12.52;95.51;101345.81;2085578;28;20131;-73
2022/11/04 01:50:55;;;;;;;7.72;3.13;;;;;;;12.51;95.31;101342.25;2085738;28;20382;-73
2022/11/04 01:52:25;;;;;;;7.45;3.40;;;;;;;12.51;94.83;101346.66;2101375;28;20403;-73
2022/11/04 01:53:51;;;;;;;6.25;3.30;;;;;;;12.48;94.70;101342.19;2101845;28;20040;-73
2022/11/04 01:55:19;;;;;;;6.63;3.35;;;;;;;12.42;94.44;101347.38;2101989;28;20051;-73
2022/11/04 01:56:42;;;;;;;5.45;3.05;;;;;;;12.36;94.21;101344.63;2089461;28;20049;-73
2022/11/04 01:58:09;;;;;;;5.25;3.03;;;;;;;12.33;93.89;101345.50;2089677;28;20049;-73
2022/11/04 01:59:34;;;;;;;6.38;3.17;;;;;;;12.29;93.74;101343.63;2093459;28;20048;-73
2022/11/04 02:00:58;;;;;;;9.70;3.00;;;;;;;12.27;93.67;101344.50;2095246;28;20044;-73
2022/11/04 02:02:20;;;;;;;5.57;2.80;;;;;;;12.28;93.62;101347.13;2095127;28;20112;-73
2022/11/04 02:03:49;;;;;;;7.82;4.05;;;;;;;12.31;93.28;101346.31;2094846;28;20056;-73
2022/11/04 02:05:10;;;;;;;7.47;3.30;;;;;;;12.30;93.35;101349.81;2095766;28;20507;-73
2022/11/04 02:06:33;;;;;;;7.07;3.42;;;;;;;12.29;93.51;101343.63;2095011;28;20389;-73
2022/11/04 02:07:57;;;;;;;8.27;3.47;;;;;;;12.29;93.75;101348.03;2090065;28;20075;-72
2022/11/04 02:09:20;;;;;;;5.60;3.00;;;;;;;12.27;93.73;101350.66;2094923;28;20053;-73
2022/11/04 02:10:49;;;;;;;7.25;3.60;;;;;;;12.29;93.68;101350.69;2087012;28;20095;-73
2022/11/04 02:13:49;;;;;;;6.95;3.72;;;;;;;12.24;94.24;101352.34;2096624;28;20412;-73
2022/11/04 02:15:12;;;;;;;14.45;5.85;;;;;;;12.22;94.49;101348.78;2097801;28;20050;-73
2022/11/04 02:16:41;;;;;;;12.70;5.03;;;;;;;12.21;95.33;101354.94;2094262;28;20101;-73
2022/11/04 02:18:34;;;;;;;11.48;5.07;;;;;;;12.18;96.25;101360.19;2087471;28;20136;-74
2022/11/04 02:20:29;;;;;;;8.25;4.18;;;;;;;12.14;96.88;101355.72;2089326;28;20049;-74
2022/11/04 02:22:25;;;;;;;7.53;4.00;;;;;;;12.11;97.33;101356.53;2089327;28;20044;-73
2022/11/04 02:24:23;;;;;;;9.07;4.05;;;;;;;12.11;97.33;101353.00;2088966;28;20049;-73
2022/11/04 02:26:17;;;;;;;9.50;3.97;;;;;;;12.10;97.37;101351.22;2089156;28;20532;-73
2022/11/04 02:28:00;;;;;;;6.72;3.60;;;;;;;12.06;97.48;101357.31;2068673;28;20074;-73
2022/11/04 02:29:32;;;;;;;6.97;3.78;;;;;;;12.06;97.68;101354.66;2097505;28;20386;-74
2022/11/04 02:31:03;;;;;;;7.72;3.60;;;;;;;12.07;97.48;101356.47;2095581;28;20051;-74
2022/11/04 02:32:38;;;;;;;7.47;3.50;;;;;;;12.08;97.52;101353.81;2095703;28;20143;-74
2022/11/04 02:34:06;;;;;;;7.55;3.53;;;;;;;12.06;97.31;101360.84;2104990;28;20036;-73
2022/11/04 02:35:41;;;;;;;7.45;3.85;;;;;;;12.06;96.96;101352.03;2089040;28;20136;-73
2022/11/04 02:37:13;;;;;;;8.07;3.90;;;;;;;12.06;96.94;101362.59;2096600;28;20094;-73
2022/11/04 02:38:44;;;;;;;5.40;3.35;;;;;;;12.03;96.89;101358.13;2089972;28;20052;-73
2022/11/04 02:40:20;;;;;;;8.02;3.42;;;;;;;12.03;96.85;101358.13;2086475;28;20424;-73
2022/11/04 02:41:49;;;;;;;7.57;3.85;;;;;;;12.01;96.94;101354.59;2087978;28;20056;-72
2022/11/04 02:43:21;;;;;;;8.00;3.95;;;;;;;12.04;96.89;101357.28;2095058;28;20049;-72
2022/11/04 02:44:48;;;;;;;6.88;3.65;;;;;;;12.05;96.74;101358.16;2097065;28;20048;-72
2022/11/04 02:46:18;;;;;;;5.47;3.42;;;;;;;12.06;96.75;101363.50;2095579;28;20049;-72
2022/11/04 02:47:45;;;;;;;6.30;3.30;;;;;;;12.08;96.79;101358.25;2104297;28;20170;-72
2022/11/04 02:49:13;;;;;;;10.00;4.25;;;;;;;12.09;96.77;101354.72;2088894;28;20048;-72
2022/11/04 02:50:41;;;;;;;8.23;4.28;;;;;;;12.09;96.60;101354.72;2095406;28;20048;-72
2022/11/04 02:52:07;;;;;;;7.00;3.83;;;;;;;12.10;96.29;101357.41;2096160;28;20136;-72
2022/11/04 02:53:37;;;;;;;7.65;3.83;;;;;;;12.09;96.06;101350.31;2089011;28;20059;-73
2022/11/04 02:55:02;;;;;;;9.55;4.05;;;;;;;12.08;96.03;101350.31;2094701;28;20153;-73
2022/11/04 02:56:27;;;;;;;6.95;3.70;;;;;;;12.07;95.78;101351.16;2095280;28;20123;-73
2022/11/04 02:57:52;;;;;;;7.90;3.67;;;;;;;12.05;95.26;101350.22;2086787;28;20558;-72
2022/11/04 02:59:19;;;;;;;5.65;3.13;;;;;;;12.02;94.91;101347.50;2086786;28;20455;-73
2022/11/04 03:00:45;;;;;;;7.50;3.42;;;;;;;11.99;94.97;101340.44;2095700;28;20591;-73
2022/11/04 03:02:10;;;;;;;6.88;3.58;;;;;;;11.97;95.38;101340.41;2089107;28;20052;-73
2022/11/04 03:03:38;;;;;;;5.25;3.35;;;;;;;11.95;96.21;101341.22;2087858;28;20048;-73
2022/11/04 03:05:04;;;;;;;7.82;2.95;;;;;;;11.95;96.56;101350.03;2095385;28;20093;-74
2022/11/04 03:06:28;;;;;;;6.15;3.63;;;;;;;11.96;96.37;101341.25;2092840;28;20067;-73
2022/11/04 03:07:53;;;;;;;8.98;3.75;;;;;;;11.98;96.20;101351.88;2080278;28;20053;-74
2022/11/04 03:09:18;;;;;;;6.70;3.30;;;;;;;11.99;96.37;101343.06;2086792;28;20367;-73
2022/11/04 03:10:42;;;;;;;6.88;3.15;;;;;;;12.00;96.29;101344.88;2094926;28;20044;-74
2022/11/04 03:12:10;;;;;;;6.60;3.50;;;;;;;12.02;96.27;101347.50;2088917;28;20492;-73
2022/11/04 03:13:37;;;;;;;7.40;4.30;;;;;;;12.02;96.15;101342.22;2109995;28;20058;-73
2022/11/04 03:15:03;;;;;;;7.63;3.67;;;;;;;11.98;96.02;101342.19;2097342;28;20056;-74
2022/11/04 03:16:34;;;;;;;8.02;3.70;;;;;;;11.97;96.54;101340.41;2101964;28;20515;-73
2022/11/04 03:18:03;;;;;;;8.52;3.53;;;;;;;11.96;97.07;101346.53;2105864;28;20369;-73
2022/11/04 03:19:30;;;;;;;7.38;3.50;;;;;;;11.96;97.39;101343.91;2103414;28;20412;-73
2022/11/04 03:20:57;;;;;;;9.73;3.70;;;;;;;11.95;97.69;101336.81;2095341;28;20814;-74
2022/11/04 03:22:21;;;;;;;6.85;3.20;;;;;;;11.91;97.95;101350.84;2103610;28;20155;-73
2022/11/04 03:23:44;;;;;;;7.30;3.25;;;;;;;11.88;98.44;101342.00;2103237;28;20510;-73
2022/11/04 03:25:09;;;;;;;6.20;3.25;;;;;;;11.88;98.44;101347.28;2077801;28;20597;-73
2022/11/04 03:26:38;;;;;;;6.40;3.25;;;;;;;11.87;98.38;101346.38;2090111;28;20097;-73
2022/11/04 03:28:05;;;;;;;7.75;3.58;;;;;;;11.89;98.57;101352.56;2094976;28;20175;-72
2022/11/04 03:29:31;;;;;;;6.22;2.88;;;;;;;11.88;98.61;101348.13;2094726;28;20582;-73
2022/11/04 03:30:55;;;;;;;7.70;3.13;;;;;;;11.88;98.54;101345.50;2078839;28;20045;-74
2022/11/04 03:32:25;;;;;;;6.05;2.88;;;;;;;11.92;98.35;101342.06;2084612;28;20044;-73
2022/11/04 03:33:50;;;;;;;7.78;3.90;;;;;;;11.93;98.00;101345.59;2086065;28;20053;-73
2022/11/04 03:35:13;;;;;;;5.47;2.97;;;;;;;11.96;97.54;101341.25;2085975;28;20712;-73
2022/11/04 03:36:36;;;;;;;7.75;3.95;;;;;;;11.96;97.02;101349.19;2094833;28;20060;-73
2022/11/04 03:37:57;;;;;;;8.20;3.95;;;;;;;11.98;96.91;101343.94;2093928;28;20048;-72
2022/11/04 03:39:20;;;;;;;7.30;3.42;;;;;;;11.96;97.08;101343.91;2094361;28;20147;-73
2022/11/04 03:40:42;;;;;;;9.57;3.50;;;;;;;11.96;97.42;101341.25;2102400;28;20571;-73
2022/11/04 03:42:18;;;;;;;6.47;3.40;;;;;;;11.97;97.23;101345.69;2097082;28;20059;-73
2022/11/04 03:43:42;;;;;;;7.57;3.83;;;;;;;11.97;96.96;101343.03;2104584;28;20080;-72
2022/11/04 03:45:05;;;;;;;10.02;5.53;;;;;;;11.98;97.06;101342.19;2095618;28;20098;-73
2022/11/04 03:46:28;;;;;;;9.60;5.80;;;;;;;11.97;97.08;101344.78;2094782;28;20438;-73
2022/11/04 03:47:51;;;;;;;13.48;6.55;;;;;;;11.98;97.50;101342.19;2102433;28;20260;-73
2022/11/04 03:49:15;;;;;;;13.25;8.07;;;;;;;12.00;98.11;101350.16;2088826;28;20053;-72
2022/11/04 03:50:40;;;;;;;12.05;8.00;;;;;;;12.02;98.00;101344.88;2092249;28;20135;-72
2022/11/04 03:52:02;;;;;;;8.80;5.25;;;;;;;12.01;98.18;101344.00;2102909;28;20047;-73
2022/11/04 03:53:27;;;;;;;14.32;8.65;;;;;;;12.00;98.59;101346.63;2088941;28;20567;-73
2022/11/04 03:54:49;;;;;;;12.15;7.65;;;;;;;12.00;98.52;101347.50;2104476;28;20075;-72
2022/11/04 03:56:28;;;;;;;10.70;7.40;;;;;;;12.02;98.29;101350.16;2090388;28;20883;-72
2022/11/04 03:57:57;;;;;;;10.18;6.75;;;;;;;12.01;98.07;101351.06;2098602;28;20512;-74
2022/11/04 03:59:39;;;;;;;8.90;5.03;;;;;;;11.99;98.24;101353.66;2098517;28;20052;-73
2022/11/04 04:01:12;;;;;;;9.82;7.03;;;;;;;11.98;97.97;101352.75;2107043;28;20380;-73
2022/11/04 04:02:56;;;;;;;9.82;6.60;;;;;;;11.97;97.93;101348.34;2090247;28;20421;-74
2022/11/04 04:04:26;;;;;;;10.95;7.32;;;;;;;11.96;98.12;101354.47;2098399;28;20045;-73
2022/11/04 04:05:54;;;;;;;10.60;6.95;;;;;;;11.93;98.50;101351.78;2089955;28;20052;-73
2022/11/04 04:07:20;;;;;;;11.75;8.10;;;;;;;11.93;98.96;101358.84;2085135;28;20397;-74
2022/11/04 04:08:46;;;;;;;12.63;7.47;;;;;;;11.93;99.46;101353.53;2092455;28;20048;-73
2022/11/04 04:11:58;;;;;;;8.55;5.63;;;;;;;11.95;100.00;101360.63;2098739;28;20102;-74
2022/11/04 04:13:31;;;;;;;9.90;6.10;;;;;;;11.93;99.99;101358.84;2090420;28;20086;-73
2022/11/04 04:14:57;;;;;;;8.68;6.22;;;;;;;11.90;100.00;101361.41;2081122;28;20073;-74
2022/11/04 04:16:26;;;;;;;12.23;6.78;;;;;;;11.88;100.00;101361.38;2094424;28;20050;-73
2022/11/04 04:17:54;;;;;;;11.30;6.25;;;;;;;11.87;100.00;101364.00;2098565;28;20131;-73
2022/11/04 04:19:22;;;;;;;10.60;6.72;;;;;;;11.85;100.00;101361.31;2095654;28;20055;-73
2022/11/04 04:20:47;;;;;;;10.27;6.55;;;;;;;11.84;100.00;101367.47;2096642;28;20051;-73
2022/11/04 04:22:15;;;;;;;10.70;6.68;;;;;;;11.85;100.00;101371.00;2089915;28;20056;-72
2022/11/04 04:28:46;;;;;;;9.80;5.75;;;;;;;11.78;100.00;101370.00;2097052;28;20059;-73
2022/11/04 04:30:12;;;;;;;11.73;5.97;;;;;;;11.79;100.00;101373.53;2103901;28;20043;-73
2022/11/04 04:31:48;;;;;;;9.07;5.65;;;;;;;11.79;100.00;101376.19;2098545;28;20151;-73
2022/11/04 04:33:15;;;;;;;8.25;5.30;;;;;;;11.77;100.00;101376.13;2106270;28;20048;-73
2022/11/04 04:34:37;;;;;;;10.77;6.15;;;;;;;11.75;100.00;101375.22;2097742;28;20508;-73
2022/11/04 04:36:00;;;;;;;12.30;5.70;;;;;;;11.76;100.00;101370.81;2095613;28;20079;-73
2022/11/04 04:37:25;;;;;;;9.27;6.40;;;;;;;11.77;100.00;101376.13;2087620;28;20470;-73
2022/11/04 04:45:33;;;;;;;15.52;10.13;;;;;;;11.82;100.00;101390.34;2098052;28;20056;-73
2022/11/04 04:46:57;;;;;;;13.18;10.57;;;;;;;11.82;100.00;101379.75;2095942;28;20040;-73
2022/11/04 04:48:21;;;;;;;11.20;8.68;;;;;;;11.85;100.00;101382.50;2087362;28;20151;-73
2022/11/04 04:49:49;;;;;;;15.10;8.65;;;;;;;11.88;100.00;101381.66;2093350;28;20064;-73
2022/11/04 04:51:11;;;;;;;12.18;8.60;;;;;;;11.92;100.00;101379.09;2088262;28;20091;-73
2022/11/04 04:52:37;;;;;;;13.98;9.43;;;;;;;11.95;100.00;101378.25;2089825;28;20160;-74
2022/11/04 04:53:59;;;;;;;12.48;8.98;;;;;;;11.99;100.00;101382.78;2083438;28;20041;-73
2022/11/04 04:55:22;;;;;;;12.38;8.90;;;;;;;12.01;100.00;101377.50;2098334;28;20109;-74
2022/11/04 04:56:44;;;;;;;12.52;8.50;;;;;;;12.04;100.00;101382.84;2095765;28;20049;-73
2022/11/04 04:58:07;;;;;;;11.85;8.13;;;;;;;12.06;100.00;101383.78;2095039;28;20051;-73
2022/11/04 04:59:28;;;;;;;13.88;8.88;;;;;;;12.08;100.00;101375.00;2097660;28;20045;-73
2022/11/04 05:00:51;;;;;;;12.63;9.43;;;;;;;12.10;100.00;101389.16;2093604;28;20060;-73
2022/11/04 05:02:12;;;;;;;14.35;9.68;;;;;;;12.11;100.00;101380.34;2097741;28;20060;-74
2022/11/04 05:03:36;;;;;;;13.95;12.20;;;;;;;12.11;100.00;101380.34;2094823;28;20041;-73
2022/11/04 05:04:58;;;;;;;19.13;14.85;;;;;;;12.10;100.00;101382.97;2094280;28;20526;-73
2022/11/04 05:06:20;;;;;;;22.73;20.23;;;;;;;12.09;100.00;101386.47;2098320;28;20059;-74
2022/11/04 05:07:43;;;;;;;21.30;18.77;;;;;;;12.09;100.00;101381.19;2098797;28;20047;-74
2022/11/04 05:09:04;;;;;;;17.65;14.18;;;;;;;12.11;100.00;101384.75;2086293;28;20053;-74
2022/11/04 05:10:27;;;;;;;22.02;14.13;;;;;;;12.14;100.00;101390.13;2100442;28;20579;-74
2022/11/04 05:11:48;;;;;;;13.60;9.00;;;;;;;12.18;100.00;101389.31;2097054;28;20044;-74
2022/11/04 05:13:28;;;;;;;13.50;10.25;;;;;;;12.20;100.00;101388.47;2093315;28;20052;-73
2022/11/04 05:14:51;;;;;;;13.70;10.00;;;;;;;12.23;100.00;101395.56;2086602;28;20048;-74
2022/11/04 05:16:13;;;;;;;14.10;9.50;;;;;;;12.26;100.00;101390.34;2094020;28;20052;-73
2022/11/04 05:17:34;;;;;;;14.05;9.90;;;;;;;12.27;100.00;101389.50;2097174;28;20048;-74
2022/11/04 05:18:58;;;;;;;15.40;10.07;;;;;;;12.28;100.00;101393.88;2096938;28;20471;-73
2022/11/04 05:20:21;;;;;;;11.38;8.52;;;;;;;12.31;100.00;101401.91;2088972;28;20109;-74
2022/11/04 05:21:43;;;;;;;11.98;8.65;;;;;;;12.34;100.00;101400.19;2087720;28;20064;-73
2022/11/04 05:23:05;;;;;;;11.80;8.48;;;;;;;12.39;100.00;101397.66;2097392;28;20041;-74
2022/11/04 05:24:28;;;;;;;11.15;8.75;;;;;;;12.43;100.00;101399.47;2096758;28;20680;-72
2022/11/04 05:25:50;;;;;;;13.60;9.35;;;;;;;12.50;100.00;101396.09;2080280;28;20464;-73
2022/11/04 05:27:13;;;;;;;14.73;9.57;;;;;;;12.62;100.00;101400.69;2092240;28;20044;-74
2022/11/04 05:28:35;;;;;;;14.13;8.25;;;;;;;12.78;100.00;101401.00;2087181;28;20041;-74
2022/11/04 05:29:58;;;;;;;12.82;10.10;;;;;;;12.98;100.00;101411.94;2100244;28;20111;-73
2022/11/04 05:31:20;;;;;;;10.23;6.97;;;;;;;13.17;100.00;101407.84;2084318;28;20049;-74
2022/11/04 05:32:42;;;;;;;10.43;7.70;;;;;;;13.34;100.00;101411.63;2100042;28;20040;-73
2022/11/04 05:34:06;;;;;;;14.45;8.55;;;;;;;13.53;100.00;101416.31;2082143;28;20050;-74
2022/11/04 05:35:28;;;;;;;13.20;8.27;;;;;;;13.71;100.00;101422.78;2093768;28;20520;-74
2022/11/04 05:36:51;;;;;;;10.98;7.05;;;;;;;13.88;100.00;101426.53;2097338;28;20052;-73
2022/11/04 05:38:12;;;;;;;11.32;7.43;;;;;;;14.06;100.00;101423.19;2097227;28;20200;-74
2022/11/04 05:39:35;;;;;;;13.55;6.25;;;;;;;14.23;100.00;101430.50;2097445;28;20045;-73
2022/11/04 05:40:57;;;;;;;18.13;6.22;;;;;;;14.40;100.00;101421.84;2093311;28;20040;-73
2022/11/04 05:42:19;;;;;;;20.40;6.10;;;;;;;14.55;100.00;101420.25;2103078;28;20028;-74
2022/11/04 05:43:40;;;;;;;20.92;5.53;;;;;;;14.68;99.07;101419.50;2105696;28;20048;-74
2022/11/04 05:45:03;;;;;;;16.27;4.90;;;;;;;14.82;97.78;101416.97;2093437;28;20139;-74
2022/11/04 05:46:26;;;;;;;26.73;5.68;;;;;;;14.98;96.70;101425.94;2103080;28;20113;-74
2022/11/04 05:47:48;;;;;;;21.33;5.28;;;;;;;15.10;95.99;101420.72;2088862;28;20045;-74
2022/11/04 05:49:12;;;;;;;14.73;4.97;;;;;;;15.25;95.41;101417.28;2085451;28;20513;-74
2022/11/04 05:50:34;;;;;;;8.27;4.28;;;;;;;15.38;94.56;101424.47;2086611;28;20504;-74
2022/11/04 05:51:56;;;;;;;11.75;5.10;;;;;;;15.49;93.60;101423.66;2091746;28;20043;-74
2022/11/04 05:53:19;;;;;;;10.63;4.85;;;;;;;15.60;93.34;101421.09;2095909;28;20579;-74
2022/11/04 05:54:41;;;;;;;11.05;4.30;;;;;;;15.74;92.72;101429.16;2094261;28;20133;-74
2022/11/04 05:56:03;;;;;;;14.52;7.45;;;;;;;15.86;92.49;101427.44;2094347;28;20538;-74
2022/11/04 05:57:26;;;;;;;13.68;7.00;;;;;;;15.99;92.26;101431.06;2094333;28;20151;-74
2022/11/04 05:58:48;;;;;;;11.43;5.13;;;;;;;16.11;91.99;101432.88;2091117;28;20134;-74
2022/11/04 06:00:14;;;;;;;9.88;4.03;;;;;;;16.24;90.05;101432.03;2101232;28;20059;-74
2022/11/04 06:01:38;;;;;;;6.07;3.17;;;;;;;16.37;87.80;101431.19;2080866;28;20060;-74
2022/11/04 06:03:01;;;;;;;5.72;3.33;;;;;;;16.49;85.95;101430.31;2086598;28;20144;-74
2022/11/04 06:04:24;;;;;;;6.97;3.03;;;;;;;16.63;84.68;101426.81;2096989;28;20040;-74
2022/11/04 06:05:47;;;;;;;7.05;2.50;;;;;;;16.77;83.60;101436.63;2105442;28;20106;-74
2022/11/04 06:07:10;;;;;;;5.53;3.25;;;;;;;16.89;82.75;101425.94;2093432;28;20090;-74
2022/11/04 06:08:33;;;;;;;6.00;3.17;;;;;;;17.00;81.85;101435.72;2085998;28;20120;-75
2022/11/04 06:09:55;;;;;;;4.38;2.80;;;;;;;17.14;80.79;101438.41;2089155;28;20059;-74
2022/11/04 06:11:19;;;;;;;9.43;2.90;;;;;;;17.27;80.59;101432.16;2094258;28;20075;-74
2022/11/04 06:12:42;;;;;;;7.32;3.28;;;;;;;17.42;80.17;101436.59;2084295;28;20125;-74
2022/11/04 06:14:05;;;;;;;9.38;3.13;;;;;;;17.54;79.61;101437.47;2097445;28;20516;-74
2022/11/04 06:15:26;;;;;;;12.63;2.75;;;;;;;17.68;78.51;101439.25;2088509;28;20439;-74
2022/11/04 06:16:48;;;;;;;7.68;3.00;;;;;;;17.80;77.84;101439.19;2099352;28;20052;-74
2022/11/04 06:18:09;;;;;;;9.32;2.83;;;;;;;17.92;77.13;101442.72;2096414;28;20040;-74
2022/11/04 06:19:33;;;;;;;11.57;3.53;;;;;;;18.03;77.08;101437.34;2092653;28;20139;-74
2022/11/04 06:21:07;;;;;;;7.45;3.20;;;;;;;18.17;76.08;101432.84;2093661;28;20056;-75
2022/11/04 06:22:29;;;;;;;8.40;2.50;;;;;;;18.36;75.31;101438.09;2103787;28;20106;-74
2022/11/04 06:23:52;;;;;;;7.40;2.58;;;;;;;18.50;74.51;101436.22;2096473;28;20133;-74
2022/11/04 06:25:16;;;;;;;8.68;2.30;;;;;;;18.66;72.99;101435.25;2093696;28;20076;-74
2022/11/04 06:26:38;;;;;;;8.55;1.98;;;;;;;18.81;71.98;101435.16;2086586;28;20044;-74
2022/11/04 06:28:00;;;;;;;7.50;2.08;;;;;;;18.93;70.86;101428.81;2085372;28;20041;-74
2022/11/04 06:29:23;;;;;;;8.77;2.55;;;;;;;19.04;70.78;101433.16;2096802;28;20075;-74
2022/11/04 06:30:45;;;;;;;7.57;2.42;;;;;;;19.17;70.39;101430.38;2098026;28;20096;-74
2022/11/04 06:32:08;;;;;;;9.32;2.13;;;;;;;19.32;70.02;101433.81;2079803;28;20096;-74
2022/11/04 06:33:30;;;;;;;4.35;1.90;;;;;;;19.41;68.37;101423.03;2085738;28;20049;-74
2022/11/04 06:34:54;;;;;;;5.45;1.80;;;;;;;19.52;67.78;101427.41;2099663;28;20527;-74
2022/11/04 06:36:17;;;;;;;3.33;1.77;;;;;;;19.62;67.37;101429.09;2089410;28;20067;-74
2022/11/04 06:37:40;;;;;;;5.55;1.88;;;;;;;19.70;65.74;101429.88;2085695;28;20090;-74
2022/11/04 06:39:03;;;;;;;6.40;1.90;;;;;;;19.81;65.84;101436.91;2077656;28;20048;-74
2022/11/04 06:40:27;;;;;;;5.15;1.80;;;;;;;19.96;65.29;101438.50;2089855;28;20075;-74
2022/11/04 06:41:49;;;;;;;4.15;1.63;;;;;;;20.07;65.16;101436.59;2099566;28;20067;-75
2022/11/04 06:43:11;;;;;;;6.10;1.70;;;;;;;20.19;65.25;101439.13;2087980;28;20079;-74
2022/11/04 06:44:35;;;;;;;4.22;1.67;;;;;;;20.29;65.02;101439.88;2093686;28;20084;-75
2022/11/04 06:45:59;;;;;;;5.63;1.92;;;;;;;20.35;65.17;101444.31;2090426;28;20143;-74
2022/11/04 06:47:21;;;;;;;7.22;1.80;;;;;;;20.43;66.11;101445.06;2102436;28;20056;-75
2022/11/04 06:48:44;;;;;;;3.38;1.50;;;;;;;20.50;66.95;101446.75;2095699;28;20064;-75
2022/11/04 06:50:09;;;;;;;5.45;1.50;;;;;;;20.63;67.53;101441.19;2083965;28;20056;-74
2022/11/04 06:51:34;;;;;;;2.88;1.40;;;;;;;20.77;67.08;101437.44;2091447;28;20312;-74
2022/11/04 06:52:56;;;;;;;4.15;1.70;;;;;;;20.91;67.12;101440.78;2094629;28;20048;-74
2022/11/04 06:54:19;;;;;;;4.57;1.75;;;;;;;21.06;66.87;101440.53;2088182;28;20077;-74
2022/11/04 06:55:41;;;;;;;3.55;1.48;;;;;;;21.25;65.55;101438.47;2095170;28;20055;-73
2022/11/04 06:57:04;;;;;;;3.53;1.67;;;;;;;21.40;64.36;101438.16;2087696;28;20045;-73
2022/11/04 06:58:25;;;;;;;5.03;1.50;;;;;;;21.54;64.02;101438.81;2091575;28;20109;-74
2022/11/04 06:59:48;;;;;;;5.05;1.70;;;;;;;21.68;63.47;101438.53;2101319;28;20101;-73
2022/11/04 07:01:11;;;;;;;7.00;1.58;;;;;;;21.84;63.09;101435.53;2095914;28;20044;-73
2022/11/04 07:02:33;;;;;;;3.72;1.63;;;;;;;21.99;61.54;101431.66;2077597;28;20103;-74
2022/11/04 07:03:57;;;;;;;4.72;1.75;;;;;;;22.10;60.08;101440.41;2088754;28;20136;-74